createdAt,value
2022-12-19T00:01:58.539Z,-1.07
2022-12-19T00:04:30.225Z,-0.95
2022-12-19T00:06:58.854Z,-1.07
2022-12-19T00:09:27.562Z,-0.86
2022-12-19T00:11:55.671Z,-0.84
2022-12-19T00:14:23.564Z,-0.84
2022-12-19T00:16:51.548Z,-0.68
2022-12-19T00:19:19.534Z,-0.60
2022-12-19T00:21:48.973Z,-0.75
2022-12-19T00:24:21.422Z,-0.77
2022-12-19T00:26:50.370Z,-0.76
2022-12-19T00:29:18.457Z,-0.79
2022-12-19T00:31:46.690Z,-0.91
2022-12-19T00:34:14.806Z,-0.77
2022-12-19T00:36:42.675Z,-0.86
2022-12-19T00:39:12.428Z,-0.86
2022-12-19T00:41:42.568Z,-0.79
2022-12-19T00:44:12.576Z,-0.72
2022-12-19T00:46:40.650Z,-0.74
2022-12-19T00:49:08.723Z,-0.58
2022-12-19T00:51:38.312Z,-0.73
2022-12-19T00:54:07.920Z,-0.79
2022-12-19T00:56:38.450Z,-0.77
2022-12-19T00:59:07.292Z,-0.79
2022-12-19T01:01:37.953Z,-0.83
2022-12-19T01:06:57.796Z,-0.74
2022-12-19T01:09:31.464Z,-0.79
2022-12-19T01:12:18.187Z,-0.70
2022-12-19T01:14:46.763Z,-0.64
2022-12-19T01:17:14.747Z,-0.64
2022-12-19T01:19:44.678Z,-0.56
2022-12-19T01:22:13.491Z,-0.45
2022-12-19T01:24:41.963Z,-0.40
2022-12-19T01:27:11.334Z,-0.45
2022-12-19T01:29:51.791Z,-0.51
2022-12-19T01:32:21.245Z,-0.73
2022-12-19T01:34:49.361Z,-0.74
2022-12-19T01:37:17.353Z,-0.84
2022-12-19T01:39:46.131Z,-0.74
2022-12-19T01:42:22.330Z,-0.84
2022-12-19T01:45:34.549Z,-0.81
2022-12-19T01:48:16.670Z,-0.80
2022-12-19T01:50:58.024Z,-0.79
2022-12-19T01:53:43.741Z,-0.79
2022-12-19T01:56:20.630Z,-0.74
2022-12-19T01:59:00.626Z,-0.77
2022-12-19T02:01:35.229Z,-0.84
2022-12-19T02:04:06.438Z,-0.82
2022-12-19T02:06:37.061Z,-0.84
2022-12-19T02:09:05.008Z,-0.85
2022-12-19T02:11:34.420Z,-0.93
2022-12-19T02:14:03.898Z,-1.07
2022-12-19T02:16:46.919Z,-1.02
2022-12-19T02:19:54.019Z,-0.97
2022-12-19T02:22:27.372Z,-0.91
2022-12-19T02:25:19.430Z,-0.87
2022-12-19T02:28:13.780Z,-0.87
2022-12-19T02:30:57.752Z,-0.91
2022-12-19T02:33:36.332Z,-0.96
2022-12-19T02:36:09.448Z,-0.81
2022-12-19T02:38:43.194Z,-0.86
2022-12-19T02:41:19.107Z,-0.90
2022-12-19T02:43:53.049Z,-0.83
2022-12-19T02:46:29.559Z,-0.85
2022-12-19T02:48:58.181Z,-0.94
2022-12-19T02:51:26.167Z,-1.02
2022-12-19T02:53:54.264Z,-1.09
2022-12-19T02:56:41.793Z,-1.04
2022-12-19T02:59:21.384Z,-1.06
2022-12-19T03:01:57.484Z,-0.94
2022-12-19T03:04:38.559Z,-0.82
2022-12-19T03:07:14.743Z,-0.93
2022-12-19T03:09:52.008Z,-0.84
2022-12-19T03:12:25.836Z,-0.88
2022-12-19T03:14:55.903Z,-0.84
2022-12-19T03:17:25.607Z,-0.77
2022-12-19T03:19:53.581Z,-0.74
2022-12-19T03:22:22.248Z,-0.73
2022-12-19T03:24:50.293Z,-0.79
2022-12-19T03:27:23.069Z,-0.72
2022-12-19T03:29:56.211Z,-0.70
2022-12-19T03:32:28.133Z,-0.85
2022-12-19T03:35:00.159Z,-0.85
2022-12-19T03:37:32.770Z,-0.93
2022-12-19T03:40:04.077Z,-1.00
2022-12-19T03:42:53.050Z,-0.94
2022-12-19T03:45:27.186Z,-1.08
2022-12-19T03:48:01.437Z,-1.13
2022-12-19T03:50:38.591Z,-1.22
2022-12-19T03:53:18.835Z,-1.15
2022-12-19T03:55:50.685Z,-1.18
2022-12-19T03:58:26.080Z,-1.21
2022-12-19T04:00:55.696Z,-1.17
2022-12-19T04:03:26.226Z,-1.29
2022-12-19T04:05:56.925Z,-1.28
2022-12-19T04:08:26.032Z,-1.32
2022-12-19T04:10:58.917Z,-1.37
2022-12-19T04:13:31.355Z,-1.19
2022-12-19T04:16:06.533Z,-1.04
2022-12-19T04:18:37.611Z,-1.13
2022-12-19T04:21:14.247Z,-1.18
2022-12-19T04:23:47.592Z,-1.25
2022-12-19T04:26:19.803Z,-1.28
2022-12-19T04:28:51.133Z,-1.40
2022-12-19T04:31:20.923Z,-1.45
2022-12-19T04:33:50.443Z,-1.33
2022-12-19T04:36:18.519Z,-1.30
2022-12-19T04:38:46.791Z,-1.26
2022-12-19T04:41:14.836Z,-1.30
2022-12-19T04:43:42.879Z,-1.24
2022-12-19T04:46:10.969Z,-1.12
2022-12-19T04:48:39.099Z,-1.18
2022-12-19T04:51:08.907Z,-1.11
2022-12-19T04:53:37.066Z,-1.01
2022-12-19T04:56:07.214Z,-0.99
2022-12-19T04:58:41.259Z,-1.04
2022-12-19T05:01:12.908Z,-1.08
2022-12-19T05:03:41.698Z,-1.20
2022-12-19T05:06:13.093Z,-1.18
2022-12-19T05:08:43.515Z,-1.28
2022-12-19T05:11:19.245Z,-1.25
2022-12-19T05:13:48.136Z,-1.26
2022-12-19T05:16:16.367Z,-1.21
2022-12-19T05:18:45.078Z,-1.22
2022-12-19T05:21:15.013Z,-1.25
2022-12-19T05:23:43.539Z,-1.09
2022-12-19T05:26:13.606Z,-1.12
2022-12-19T05:28:41.607Z,-1.06
2022-12-19T05:31:12.208Z,-1.05
2022-12-19T05:33:41.840Z,-1.06
2022-12-19T05:36:10.821Z,-1.20
2022-12-19T05:38:40.608Z,-1.10
2022-12-19T05:41:09.385Z,-1.25
2022-12-19T05:43:37.578Z,-1.22
2022-12-19T05:46:06.515Z,-1.28
2022-12-19T05:48:35.132Z,-1.13
2022-12-19T05:51:03.128Z,-1.21
2022-12-19T05:53:31.460Z,-1.07
2022-12-19T05:56:11.571Z,-1.10
2022-12-19T05:58:40.723Z,-1.02
2022-12-19T06:01:11.984Z,-1.03
2022-12-19T06:03:48.794Z,-0.85
2022-12-19T06:06:19.797Z,-0.73
2022-12-19T06:08:52.040Z,-0.63
2022-12-19T06:11:23.548Z,-0.67
2022-12-19T06:13:52.747Z,-0.74
2022-12-19T06:16:24.645Z,-0.57
2022-12-19T06:18:53.247Z,-0.42
2022-12-19T06:21:28.691Z,-0.34
2022-12-19T06:23:57.395Z,-0.28
2022-12-19T06:26:33.176Z,-0.29
2022-12-19T06:29:03.970Z,-0.27
2022-12-19T06:31:32.969Z,-0.25
2022-12-19T06:34:01.566Z,-0.34
2022-12-19T06:36:38.905Z,-0.24
2022-12-19T06:39:14.270Z,-0.03
2022-12-19T06:42:16.943Z,0.05
2022-12-19T06:44:46.649Z,0.12
2022-12-19T06:47:18.956Z,0.12
2022-12-19T06:55:30.629Z,0.26
2022-12-19T07:06:49.754Z,0.52
2022-12-19T07:09:32.842Z,0.61
2022-12-19T07:12:16.148Z,0.55
2022-12-19T07:15:01.536Z,0.69
2022-12-19T07:17:32.938Z,0.81
2022-12-19T07:20:02.721Z,0.84
2022-12-19T07:25:30.691Z,0.76
2022-12-19T07:27:59.607Z,0.84
2022-12-19T07:30:31.123Z,0.87
2022-12-19T07:33:01.287Z,0.73
2022-12-19T07:38:16.761Z,0.92
2022-12-19T07:40:46.265Z,0.93
2022-12-19T07:43:14.881Z,0.99
2022-12-19T07:45:46.091Z,0.85
2022-12-19T07:48:30.566Z,1.03
2022-12-19T07:53:47.483Z,0.94
2022-12-19T07:56:31.683Z,0.97
2022-12-19T07:59:29.628Z,1.02
2022-12-19T08:02:15.413Z,0.94
2022-12-19T08:04:46.108Z,0.93
2022-12-19T08:10:27.882Z,0.81
2022-12-19T08:12:56.680Z,0.93
2022-12-19T08:15:27.542Z,0.97
2022-12-19T08:21:21.962Z,1.04
2022-12-19T08:24:06.333Z,1.18
2022-12-19T08:26:48.460Z,1.20
2022-12-19T08:32:20.540Z,1.13
2022-12-19T08:34:57.696Z,1.21
2022-12-19T08:37:34.157Z,1.24
2022-12-19T08:40:04.325Z,1.26
2022-12-19T08:45:29.828Z,1.19
2022-12-19T08:48:00.444Z,1.33
2022-12-19T08:53:26.455Z,1.51
2022-12-19T08:56:13.998Z,1.41
2022-12-19T08:58:50.443Z,1.51
2022-12-19T09:01:22.118Z,1.56
2022-12-19T09:06:02.335Z,1.53
2022-12-19T09:07:08.004Z,1.71
2022-12-19T09:09:51.537Z,1.71
2022-12-19T09:17:54.573Z,1.90
2022-12-19T09:23:13.883Z,1.99
2022-12-19T09:28:28.351Z,2.00
2022-12-19T09:33:50.705Z,2.25
2022-12-19T09:36:23.725Z,2.40
2022-12-19T09:38:58.306Z,2.42
2022-12-19T09:41:49.039Z,2.42
2022-12-19T09:44:33.558Z,2.31
2022-12-19T09:47:04.274Z,2.43
2022-12-19T09:49:57.724Z,2.50
2022-12-19T09:52:40.074Z,2.51
2022-12-19T09:55:43.418Z,2.53
2022-12-19T10:01:13.144Z,2.43
2022-12-19T10:03:45.717Z,2.51
2022-12-19T10:11:16.382Z,2.65
2022-12-19T10:15:24.251Z,2.76
2022-12-19T10:18:26.730Z,2.73
2022-12-19T10:21:05.589Z,2.92
2022-12-19T10:24:03.043Z,3.03
2022-12-19T10:26:45.062Z,3.02
2022-12-19T10:29:36.627Z,3.30
2022-12-19T10:35:17.569Z,3.32
2022-12-19T10:37:57.666Z,3.29
2022-12-19T10:40:33.892Z,3.18
2022-12-19T10:43:11.573Z,3.30
2022-12-19T10:52:01.359Z,3.58
2022-12-19T10:55:03.378Z,3.65
2022-12-19T11:00:46.075Z,3.83
2022-12-19T11:03:33.216Z,3.72
2022-12-19T11:06:17.266Z,3.80
2022-12-19T11:09:08.552Z,3.76
2022-12-19T11:13:34.510Z,3.71
2022-12-19T11:18:29.553Z,3.64
2022-12-19T11:21:36.027Z,3.42
2022-12-19T11:29:33.343Z,3.27
2022-12-19T11:30:48.003Z,3.45
2022-12-19T11:32:41.250Z,3.46
2022-12-19T11:35:36.589Z,3.56
2022-12-19T11:38:19.181Z,3.39
2022-12-19T11:41:03.371Z,3.56
2022-12-19T11:46:41.290Z,3.60
2022-12-19T11:49:20.086Z,3.46
2022-12-19T11:51:59.392Z,3.56
2022-12-19T11:54:38.708Z,3.61
2022-12-19T12:00:21.477Z,3.60
2022-12-19T12:03:24.485Z,3.57
2022-12-19T12:05:57.714Z,3.51
2022-12-19T12:13:12.319Z,3.49
2022-12-19T12:18:35.037Z,3.49
2022-12-19T12:31:21.870Z,3.54
2022-12-19T12:31:27.455Z,3.44
2022-12-19T12:32:00.977Z,3.40
2022-12-19T12:32:04.001Z,3.32
2022-12-19T12:35:51.510Z,3.29
2022-12-19T12:38:44.982Z,3.28
2022-12-19T12:41:44.114Z,3.32
2022-12-19T12:44:32.432Z,3.28
2022-12-19T12:47:08.980Z,3.37
2022-12-19T12:49:42.014Z,3.40
2022-12-19T12:52:26.849Z,3.46
2022-12-19T12:54:56.090Z,3.43
2022-12-19T12:57:45.796Z,3.44
2022-12-19T13:03:19.125Z,3.49
2022-12-19T13:06:01.211Z,3.48
2022-12-19T13:09:02.053Z,3.53
2022-12-19T13:11:59.317Z,3.65
2022-12-19T13:14:53.420Z,3.30
2022-12-19T13:17:56.307Z,3.40
2022-12-19T13:20:45.672Z,3.41
2022-12-19T13:23:47.878Z,3.35
2022-12-19T13:26:52.803Z,3.40
2022-12-19T13:29:56.750Z,3.42
2022-12-19T13:32:26.751Z,3.29
2022-12-19T13:39:57.112Z,3.17
2022-12-19T13:41:58.023Z,3.11
2022-12-19T13:47:47.620Z,3.11
2022-12-19T13:56:16.812Z,3.08
2022-12-19T13:58:52.181Z,3.09
2022-12-19T14:04:34.069Z,3.01
2022-12-19T14:11:28.398Z,2.98
2022-12-19T14:13:48.868Z,2.95
2022-12-19T14:19:40.952Z,2.98
2022-12-19T14:28:21.751Z,3.08
2022-12-19T14:28:29.239Z,3.14
2022-12-19T14:31:15.538Z,3.14
2022-12-19T14:34:35.815Z,3.08
2022-12-19T14:39:59.153Z,2.79
2022-12-19T14:43:57.345Z,2.85
2022-12-19T14:54:01.973Z,2.76
2022-12-19T14:54:40.843Z,2.65
2022-12-19T14:58:54.201Z,2.66
2022-12-19T15:01:10.640Z,2.71
2022-12-19T15:28:50.092Z,2.35
2022-12-19T15:31:45.310Z,2.38
2022-12-19T15:37:33.587Z,2.32
2022-12-19T15:59:47.125Z,2.03
2022-12-19T16:02:19.320Z,1.91
2022-12-19T16:04:50.010Z,2.03
2022-12-19T16:07:19.742Z,1.97
2022-12-19T16:09:50.044Z,1.89
2022-12-19T16:12:21.951Z,1.84
2022-12-19T16:15:04.536Z,1.74
2022-12-19T16:17:35.009Z,1.84
2022-12-19T16:20:04.736Z,1.85
2022-12-19T16:22:49.923Z,1.90
2022-12-19T16:25:33.536Z,1.88
2022-12-19T16:28:04.767Z,1.79
2022-12-19T16:30:51.901Z,1.83
2022-12-19T16:33:39.244Z,1.70
2022-12-19T16:36:16.157Z,1.80
2022-12-19T16:38:45.763Z,1.71
2022-12-19T16:41:18.201Z,1.82
2022-12-19T16:43:48.074Z,1.75
2022-12-19T16:47:00.812Z,1.85
2022-12-19T16:49:33.241Z,1.74
2022-12-19T16:52:16.704Z,1.80
2022-12-19T16:54:44.921Z,1.70
2022-12-19T16:57:22.120Z,1.73
2022-12-19T16:59:52.493Z,1.65
2022-12-19T17:02:42.032Z,1.60
2022-12-19T17:05:31.105Z,1.58
2022-12-19T17:08:04.993Z,1.58
2022-12-19T17:13:44.973Z,1.56
2022-12-19T17:16:20.366Z,1.51
2022-12-19T17:21:59.587Z,1.46
2022-12-19T17:24:42.846Z,1.41
2022-12-19T17:27:27.667Z,1.50
2022-12-19T17:35:38.262Z,1.55
2022-12-19T17:38:53.324Z,1.63
2022-12-19T17:44:17.987Z,1.66
2022-12-19T17:46:49.363Z,1.66
2022-12-19T17:55:41.616Z,1.58
2022-12-19T18:12:56.373Z,1.45
2022-12-19T18:18:51.994Z,1.55
2022-12-19T18:38:56.384Z,1.41
2022-12-19T18:41:48.243Z,1.47
2022-12-19T18:50:29.124Z,1.29
2022-12-19T19:00:35.036Z,1.41
2022-12-19T19:03:34.145Z,1.41
2022-12-19T19:09:31.764Z,1.31
2022-12-19T19:12:00.825Z,1.27
2022-12-19T19:14:35.260Z,1.26
2022-12-19T19:20:09.926Z,1.28
2022-12-19T19:22:52.066Z,1.37
2022-12-19T19:37:20.995Z,1.36
2022-12-19T19:39:50.774Z,1.30
2022-12-19T19:42:23.272Z,1.38
2022-12-19T19:44:54.403Z,1.25
2022-12-19T19:47:31.771Z,1.25
2022-12-19T19:53:11.452Z,1.34
2022-12-19T20:22:52.868Z,0.94
2022-12-19T20:25:35.971Z,1.02
2022-12-19T20:33:58.790Z,0.68
2022-12-19T20:36:28.292Z,0.47
2022-12-19T20:39:00.518Z,0.45
2022-12-19T20:41:29.431Z,0.34
2022-12-19T20:44:06.703Z,0.32
2022-12-19T20:56:16.600Z,0.02
2022-12-19T20:59:15.330Z,0.08
2022-12-19T21:13:35.747Z,-0.08
2022-12-19T21:16:07.762Z,0.00
2022-12-19T21:28:07.577Z,0.04
2022-12-19T21:33:42.233Z,-0.02
2022-12-19T21:36:12.698Z,-0.21
2022-12-19T21:38:44.675Z,-0.05
2022-12-19T21:41:21.218Z,-0.08
2022-12-19T21:43:56.309Z,-0.12
2022-12-19T21:49:27.106Z,-0.13
2022-12-19T21:51:59.679Z,-0.04
2022-12-19T21:54:38.858Z,-0.07
2022-12-19T21:57:18.138Z,-0.01
2022-12-19T22:00:01.260Z,-0.04
2022-12-19T22:18:29.434Z,-0.30
2022-12-19T22:21:03.002Z,-0.29
2022-12-19T22:23:32.484Z,-0.25
2022-12-19T22:26:06.519Z,-0.26
2022-12-19T22:28:38.636Z,-0.27
2022-12-19T22:31:17.110Z,-0.22
2022-12-19T22:33:48.430Z,-0.36
2022-12-19T22:36:22.390Z,-0.35
2022-12-19T22:38:54.314Z,-0.31
2022-12-19T22:41:23.747Z,-0.45
2022-12-19T22:43:53.096Z,-0.47
2022-12-19T22:46:23.935Z,-0.32
2022-12-19T22:48:54.575Z,-0.48
2022-12-19T22:51:23.302Z,-0.41
2022-12-19T22:53:58.080Z,-0.45
2022-12-19T22:56:42.111Z,-0.53
2022-12-19T22:59:13.410Z,-0.55
2022-12-19T23:04:48.101Z,-0.58
2022-12-19T23:07:16.193Z,-0.54
2022-12-19T23:09:44.243Z,-0.63
2022-12-19T23:12:12.204Z,-0.63
2022-12-19T23:14:40.265Z,-0.73
2022-12-19T23:17:08.429Z,-0.77
2022-12-19T23:19:38.001Z,-0.63
2022-12-19T23:22:06.160Z,-0.70
2022-12-19T23:24:34.484Z,-0.70
2022-12-19T23:27:02.660Z,-0.80
2022-12-19T23:29:30.667Z,-0.79
2022-12-19T23:31:58.777Z,-0.79
2022-12-19T23:34:26.778Z,-0.86
2022-12-19T23:37:12.882Z,-0.83
2022-12-19T23:39:41.091Z,-0.83
2022-12-19T23:42:09.232Z,-0.88
2022-12-19T23:44:37.442Z,-0.82
2022-12-19T23:47:05.480Z,-0.91
2022-12-19T23:49:34.665Z,-0.95
2022-12-19T23:52:04.039Z,-0.90
2022-12-19T23:54:32.110Z,-0.92
2022-12-19T23:57:00.114Z,-0.94
2022-12-19T23:59:28.193Z,-0.91
